createdAt,value
2019-06-27T00:00:31.436Z,0.00
2019-06-27T00:01:31.455Z,4.00
2019-06-27T00:02:31.476Z,4.00
2019-06-27T00:03:31.508Z,4.00
2019-06-27T00:04:31.520Z,0.00
2019-06-27T00:05:31.546Z,4.00
2019-06-27T00:06:31.670Z,4.00
2019-06-27T00:07:31.588Z,4.00
2019-06-27T00:08:31.604Z,4.00
2019-06-27T00:09:32.027Z,4.00
2019-06-27T00:10:34.243Z,4.00
2019-06-27T00:11:31.674Z,4.00
2019-06-27T00:12:31.697Z,4.00
2019-06-27T00:13:31.711Z,0.00
2019-06-27T00:14:31.730Z,4.00
2019-06-27T00:15:32.024Z,4.00
2019-06-27T00:16:31.779Z,4.00
2019-06-27T00:17:31.795Z,4.00
2019-06-27T00:18:31.817Z,4.00
2019-06-27T00:19:31.846Z,4.00
2019-06-27T00:20:32.010Z,4.00
2019-06-27T00:21:31.880Z,4.00
2019-06-27T00:22:32.351Z,4.00
2019-06-27T00:23:31.928Z,4.00
2019-06-27T00:24:31.946Z,4.00
2019-06-27T00:25:31.971Z,4.00
2019-06-27T00:26:31.986Z,4.00
2019-06-27T00:27:32.009Z,4.00
2019-06-27T00:28:32.029Z,4.00
2019-06-27T00:29:32.122Z,4.00
2019-06-27T00:30:32.085Z,4.00
2019-06-27T00:31:32.100Z,4.00
2019-06-27T00:32:32.116Z,4.00
2019-06-27T00:33:32.136Z,4.00
2019-06-27T00:34:32.156Z,4.00
2019-06-27T00:35:32.180Z,4.00
2019-06-27T00:36:32.202Z,4.00
2019-06-27T00:37:32.231Z,4.00
2019-06-27T00:38:32.247Z,4.00
2019-06-27T00:39:32.263Z,4.00
2019-06-27T00:40:32.290Z,4.00
2019-06-27T00:41:32.305Z,0.00
2019-06-27T00:42:32.327Z,0.00
2019-06-27T00:43:32.348Z,4.00
2019-06-27T00:44:32.379Z,4.00
2019-06-27T00:45:32.393Z,4.00
2019-06-27T00:46:32.412Z,4.00
2019-06-27T00:47:32.441Z,0.00
2019-06-27T00:48:32.463Z,4.00
2019-06-27T00:49:32.482Z,4.00
2019-06-27T00:50:32.503Z,4.00
2019-06-27T00:51:32.518Z,4.00
2019-06-27T00:52:32.544Z,4.00
2019-06-27T00:53:32.569Z,4.00
2019-06-27T00:54:32.583Z,4.00
2019-06-27T00:55:32.611Z,4.00
2019-06-27T00:56:32.627Z,4.00
2019-06-27T00:57:32.658Z,4.00
2019-06-27T00:58:32.667Z,0.00
2019-06-27T00:59:32.691Z,4.00
2019-06-27T01:00:32.711Z,4.00
2019-06-27T01:01:32.747Z,4.00
2019-06-27T01:02:32.752Z,4.00
2019-06-27T01:03:32.784Z,4.00
2019-06-27T01:04:32.813Z,4.00
2019-06-27T01:05:32.824Z,4.00
2019-06-27T01:06:32.838Z,4.00
2019-06-27T01:07:32.858Z,0.00
2019-06-27T01:08:32.889Z,4.00
2019-06-27T01:09:32.912Z,4.00
2019-06-27T01:10:32.922Z,4.00
2019-06-27T01:11:32.956Z,4.00
2019-06-27T01:12:32.971Z,4.00
2019-06-27T01:13:32.987Z,0.00
2019-06-27T01:14:33.017Z,4.00
2019-06-27T01:15:33.031Z,4.00
2019-06-27T01:16:33.068Z,4.00
2019-06-27T01:17:33.079Z,4.00
2019-06-27T01:18:33.092Z,4.00
2019-06-27T01:19:33.171Z,4.00
2019-06-27T01:20:33.136Z,4.00
2019-06-27T01:21:33.157Z,4.00
2019-06-27T01:22:33.184Z,4.00
2019-06-27T01:23:33.199Z,4.00
2019-06-27T01:24:33.227Z,4.00
2019-06-27T01:25:33.243Z,4.00
2019-06-27T01:26:33.271Z,4.00
2019-06-27T01:27:33.293Z,4.00
2019-06-27T01:28:33.321Z,4.00
2019-06-27T01:29:33.334Z,4.00
2019-06-27T01:30:33.348Z,4.00
2019-06-27T01:31:33.370Z,4.00
2019-06-27T01:32:33.394Z,4.00
2019-06-27T01:33:33.414Z,4.00
2019-06-27T01:34:33.846Z,4.00
2019-06-27T01:35:33.455Z,0.00
2019-06-27T01:36:33.491Z,4.00
2019-06-27T01:37:33.506Z,4.00
2019-06-27T01:38:33.522Z,4.00
2019-06-27T01:39:33.544Z,4.00
2019-06-27T01:40:33.632Z,4.00
2019-06-27T01:41:33.583Z,4.00
2019-06-27T01:42:33.612Z,4.00
2019-06-27T01:43:33.628Z,4.00
2019-06-27T01:44:33.682Z,4.00
2019-06-27T01:45:33.668Z,4.00
2019-06-27T01:46:33.701Z,4.00
2019-06-27T01:47:33.725Z,4.00
2019-06-27T01:48:33.740Z,4.00
2019-06-27T01:49:33.753Z,4.00
2019-06-27T01:50:33.783Z,4.00
2019-06-27T01:51:33.797Z,4.00
2019-06-27T01:52:33.819Z,4.00
2019-06-27T01:53:33.842Z,4.00
2019-06-27T01:54:33.865Z,4.00
2019-06-27T01:55:33.882Z,4.00
2019-06-27T01:56:33.902Z,4.00
2019-06-27T01:57:46.204Z,4.00
2019-06-27T01:58:33.945Z,4.00
2019-06-27T01:59:33.971Z,4.00
2019-06-27T02:00:33.989Z,4.00
2019-06-27T02:01:34.009Z,4.00
2019-06-27T02:02:34.029Z,4.00
2019-06-27T02:03:34.052Z,4.00
2019-06-27T02:04:34.076Z,4.00
2019-06-27T02:05:34.101Z,4.00
2019-06-27T02:06:34.116Z,4.00
2019-06-27T02:07:34.138Z,4.00
2019-06-27T02:08:34.220Z,4.00
2019-06-27T02:09:34.178Z,4.00
2019-06-27T02:10:34.199Z,4.00
2019-06-27T02:11:34.227Z,4.00
2019-06-27T02:12:34.241Z,4.00
2019-06-27T02:13:34.263Z,4.00
2019-06-27T02:14:34.283Z,4.00
2019-06-27T02:15:34.317Z,4.00
2019-06-27T02:16:34.329Z,4.00
2019-06-27T02:17:34.349Z,4.00
2019-06-27T02:18:34.386Z,4.00
2019-06-27T02:19:34.398Z,4.00
2019-06-27T02:20:34.419Z,4.00
2019-06-27T02:21:34.487Z,4.00
2019-06-27T02:22:34.461Z,4.00
2019-06-27T02:23:34.476Z,4.00
2019-06-27T02:24:34.496Z,4.00
2019-06-27T02:25:34.517Z,4.00
2019-06-27T02:26:34.898Z,4.00
2019-06-27T02:27:34.567Z,4.00
2019-06-27T02:28:34.581Z,4.00
2019-06-27T02:29:34.601Z,4.00
2019-06-27T02:30:34.624Z,4.00
2019-06-27T02:31:34.649Z,0.00
2019-06-27T02:32:34.683Z,0.00
2019-06-27T02:33:34.693Z,0.00
2019-06-27T02:34:34.706Z,0.00
2019-06-27T02:35:34.730Z,0.00
2019-06-27T02:36:34.749Z,0.00
2019-06-27T02:37:34.772Z,0.00
2019-06-27T02:38:34.805Z,4.00
2019-06-27T02:39:34.897Z,4.00
2019-06-27T02:40:34.837Z,4.00
2019-06-27T02:41:34.858Z,4.00
2019-06-27T02:42:34.886Z,0.00
2019-06-27T02:43:34.915Z,4.00
2019-06-27T02:44:34.945Z,4.00
2019-06-27T02:45:34.945Z,4.00
2019-06-27T02:46:34.964Z,4.00
2019-06-27T02:47:34.981Z,4.00
2019-06-27T02:48:35.011Z,8.00
2019-06-27T02:49:35.028Z,8.00
2019-06-27T02:50:35.054Z,8.00
2019-06-27T02:51:35.074Z,8.00
2019-06-27T02:52:35.102Z,8.00
2019-06-27T02:53:35.118Z,8.00
2019-06-27T02:54:35.141Z,8.00
2019-06-27T02:55:35.153Z,12.00
2019-06-27T02:56:35.194Z,8.00
2019-06-27T02:57:35.204Z,12.00
2019-06-27T02:58:35.221Z,12.00
2019-06-27T02:59:35.245Z,12.00
2019-06-27T03:00:35.267Z,12.00
2019-06-27T03:01:35.287Z,16.00
2019-06-27T03:02:35.302Z,16.00
2019-06-27T03:03:35.319Z,20.00
2019-06-27T03:04:35.345Z,20.00
2019-06-27T03:05:35.364Z,24.00
2019-06-27T03:06:35.394Z,20.00
2019-06-27T03:07:35.412Z,24.00
2019-06-27T03:08:35.426Z,28.00
2019-06-27T03:09:35.449Z,28.00
2019-06-27T03:10:35.474Z,32.00
2019-06-27T03:11:35.490Z,32.00
2019-06-27T03:12:35.527Z,32.00
2019-06-27T03:13:35.539Z,36.00
2019-06-27T03:14:35.553Z,40.00
2019-06-27T03:15:35.574Z,44.00
2019-06-27T03:16:35.602Z,52.00
2019-06-27T03:17:35.623Z,52.00
2019-06-27T03:18:35.645Z,56.00
2019-06-27T03:19:35.667Z,56.00
2019-06-27T03:20:35.679Z,60.00
2019-06-27T03:21:35.710Z,68.00
2019-06-27T03:22:35.730Z,76.00
2019-06-27T03:23:36.044Z,80.00
2019-06-27T03:24:35.765Z,80.00
2019-06-27T03:25:35.799Z,88.00
2019-06-27T03:26:35.809Z,96.00
2019-06-27T03:27:35.831Z,100.00
2019-06-27T03:28:50.675Z,104.00
2019-06-27T03:29:35.876Z,108.00
2019-06-27T03:30:35.903Z,108.00
2019-06-27T03:31:35.911Z,112.00
2019-06-27T03:32:35.940Z,116.00
2019-06-27T03:33:35.956Z,124.00
2019-06-27T03:34:35.976Z,124.00
2019-06-27T03:35:35.995Z,124.00
2019-06-27T03:36:36.016Z,128.00
2019-06-27T03:37:36.042Z,136.00
2019-06-27T03:38:36.057Z,140.00
2019-06-27T03:39:36.080Z,144.00
2019-06-27T03:40:36.118Z,156.00
2019-06-27T03:41:36.122Z,164.00
2019-06-27T03:42:36.143Z,160.00
2019-06-27T03:43:36.168Z,164.00
2019-06-27T03:44:36.184Z,164.00
2019-06-27T03:45:36.214Z,164.00
2019-06-27T03:46:36.227Z,164.00
2019-06-27T03:47:36.248Z,168.00
2019-06-27T03:48:36.267Z,176.00
2019-06-27T03:49:36.292Z,188.00
2019-06-27T03:50:36.308Z,188.00
2019-06-27T03:51:36.341Z,192.00
2019-06-27T03:52:36.357Z,200.00
2019-06-27T03:53:36.377Z,208.00
2019-06-27T03:54:36.392Z,216.00
2019-06-27T03:55:36.424Z,228.00
2019-06-27T03:56:36.438Z,248.00
2019-06-27T03:57:36.459Z,260.00
2019-06-27T03:58:36.486Z,272.00
2019-06-27T03:59:36.506Z,288.00
2019-06-27T04:00:36.525Z,308.00
2019-06-27T04:01:36.542Z,336.00
2019-06-27T04:02:36.571Z,356.00
2019-06-27T04:03:36.590Z,364.00
2019-06-27T04:04:36.605Z,392.00
2019-06-27T04:05:36.634Z,428.00
2019-06-27T04:06:36.648Z,452.00
2019-06-27T04:07:36.667Z,456.00
2019-06-27T04:08:36.710Z,468.00
2019-06-27T04:09:36.710Z,476.00
2019-06-27T04:10:36.736Z,456.00
2019-06-27T04:11:36.760Z,468.00
2019-06-27T04:12:36.775Z,512.00
2019-06-27T04:13:36.797Z,560.00
2019-06-27T04:14:36.816Z,580.00
2019-06-27T04:15:36.837Z,568.00
2019-06-27T04:16:36.870Z,584.00
2019-06-27T04:17:36.883Z,624.00
2019-06-27T04:18:36.900Z,616.00
2019-06-27T04:19:36.924Z,604.00
2019-06-27T04:20:36.949Z,608.00
2019-06-27T04:21:36.966Z,636.00
2019-06-27T04:22:36.989Z,636.00
2019-06-27T04:23:37.010Z,636.00
2019-06-27T04:24:37.026Z,652.00
2019-06-27T04:25:37.048Z,656.00
2019-06-27T04:26:37.076Z,644.00
2019-06-27T04:27:37.095Z,664.00
2019-06-27T04:28:37.124Z,740.00
2019-06-27T04:29:37.183Z,848.00
2019-06-27T04:30:37.257Z,948.00
2019-06-27T04:31:37.173Z,1032.00
2019-06-27T04:32:37.204Z,1044.00
2019-06-27T04:33:37.217Z,1020.00
2019-06-27T04:34:37.237Z,1008.00
2019-06-27T04:35:37.267Z,988.00
2019-06-27T04:36:37.288Z,1016.00
2019-06-27T04:37:37.303Z,1064.00
2019-06-27T04:38:37.327Z,1116.00
2019-06-27T04:39:37.345Z,1132.00
2019-06-27T04:40:37.380Z,1136.00
2019-06-27T04:41:37.386Z,1180.00
2019-06-27T04:42:37.412Z,1220.00
2019-06-27T04:43:37.429Z,1116.00
2019-06-27T04:44:37.457Z,1056.00
2019-06-27T04:45:37.478Z,1076.00
2019-06-27T04:46:37.498Z,1024.00
2019-06-27T04:47:37.520Z,1032.00
2019-06-27T04:48:37.565Z,1020.00
2019-06-27T04:49:37.557Z,984.00
2019-06-27T04:50:37.575Z,972.00
2019-06-27T04:51:37.598Z,964.00
2019-06-27T04:52:37.624Z,956.00
2019-06-27T04:53:37.647Z,956.00
2019-06-27T04:54:37.661Z,908.00
2019-06-27T04:55:37.704Z,876.00
2019-06-27T04:56:37.712Z,892.00
2019-06-27T04:57:37.736Z,896.00
2019-06-27T04:58:37.748Z,860.00
2019-06-27T04:59:52.719Z,856.00
2019-06-27T05:00:37.794Z,924.00
2019-06-27T05:01:37.818Z,1000.00
2019-06-27T05:02:38.003Z,1076.00
2019-06-27T05:03:37.856Z,1116.00
2019-06-27T05:04:37.883Z,1128.00
2019-06-27T05:05:37.900Z,1076.00
2019-06-27T05:06:37.924Z,1076.00
2019-06-27T05:07:37.973Z,1140.00
2019-06-27T05:08:37.959Z,1268.00
2019-06-27T05:09:37.980Z,1408.00
2019-06-27T05:10:38.002Z,1532.00
2019-06-27T05:11:38.027Z,1740.00
2019-06-27T05:12:38.061Z,1960.00
2019-06-27T05:13:38.063Z,1972.00
2019-06-27T05:14:38.282Z,1988.00
2019-06-27T05:15:38.108Z,1984.00
2019-06-27T05:16:38.129Z,2104.00
2019-06-27T05:17:38.149Z,2324.00
2019-06-27T05:18:38.168Z,2132.00
2019-06-27T05:19:38.192Z,2412.00
2019-06-27T05:20:38.229Z,2136.00
2019-06-27T05:21:38.251Z,2040.00
2019-06-27T05:22:38.260Z,2096.00
2019-06-27T05:23:38.306Z,2044.00
2019-06-27T05:24:38.300Z,2000.00
2019-06-27T05:25:38.328Z,2048.00
2019-06-27T05:26:38.359Z,2240.00
2019-06-27T05:27:38.366Z,2336.00
2019-06-27T05:28:38.383Z,2280.00
2019-06-27T05:29:38.407Z,2244.00
2019-06-27T05:30:38.434Z,2152.00
2019-06-27T05:31:38.450Z,2132.00
2019-06-27T05:32:38.469Z,1980.00
2019-06-27T05:33:38.499Z,1744.00
2019-06-27T05:34:38.534Z,1640.00
2019-06-27T05:35:38.536Z,1636.00
2019-06-27T05:36:38.564Z,1752.00
2019-06-27T05:37:38.586Z,1760.00
2019-06-27T05:38:38.621Z,1744.00
2019-06-27T05:39:38.622Z,1860.00
2019-06-27T05:40:38.648Z,2028.00
2019-06-27T05:41:38.672Z,2112.00
2019-06-27T05:42:38.688Z,2400.00
2019-06-27T05:43:38.709Z,2616.00
2019-06-27T05:44:38.746Z,2168.00
2019-06-27T05:45:38.756Z,2328.00
2019-06-27T05:46:38.780Z,1892.00
2019-06-27T05:47:38.799Z,1880.00
2019-06-27T05:48:39.773Z,2024.00
2019-06-27T05:49:38.843Z,1920.00
2019-06-27T05:50:38.858Z,2208.00
2019-06-27T05:51:38.879Z,2280.00
2019-06-27T05:52:38.919Z,1996.00
2019-06-27T05:53:38.929Z,2280.00
2019-06-27T05:54:38.943Z,2436.00
2019-06-27T05:55:38.966Z,1980.00
2019-06-27T05:56:38.986Z,1632.00
2019-06-27T05:57:39.009Z,1664.00
2019-06-27T05:58:39.032Z,1632.00
2019-06-27T05:59:39.052Z,2040.00
2019-06-27T06:00:39.091Z,2376.00
2019-06-27T06:01:39.095Z,1708.00
2019-06-27T06:02:39.119Z,1616.00
2019-06-27T06:03:39.140Z,1460.00
2019-06-27T06:04:39.168Z,1596.00
2019-06-27T06:05:39.182Z,1476.00
2019-06-27T06:06:39.203Z,1900.00
2019-06-27T06:07:39.241Z,1620.00
2019-06-27T06:08:39.256Z,2052.00
2019-06-27T06:09:39.279Z,1684.00
2019-06-27T06:10:39.293Z,1584.00
2019-06-27T06:11:39.318Z,2820.00
2019-06-27T06:12:39.336Z,1708.00
2019-06-27T06:13:39.365Z,2096.00
2019-06-27T06:14:39.381Z,2412.00
2019-06-27T06:15:39.399Z,3104.00
2019-06-27T06:16:39.421Z,3056.00
2019-06-27T06:17:39.445Z,2832.00
2019-06-27T06:18:39.470Z,3320.00
2019-06-27T06:19:39.490Z,3356.00
2019-06-27T06:20:39.515Z,3228.00
2019-06-27T06:21:39.555Z,2504.00
2019-06-27T06:22:39.552Z,2888.00
2019-06-27T06:23:39.578Z,3036.00
2019-06-27T06:24:39.604Z,3120.00
2019-06-27T06:25:39.627Z,3288.00
2019-06-27T06:26:39.645Z,2508.00
2019-06-27T06:27:39.665Z,2876.00
2019-06-27T06:28:39.689Z,3704.00
2019-06-27T06:29:39.711Z,2792.00
2019-06-27T06:30:44.446Z,2544.00
2019-06-27T06:31:39.759Z,3280.00
2019-06-27T06:32:39.781Z,3416.00
2019-06-27T06:33:39.804Z,3704.00
2019-06-27T06:34:39.832Z,2648.00
2019-06-27T06:35:39.855Z,3156.00
2019-06-27T06:36:39.879Z,2688.00
2019-06-27T06:37:39.896Z,4036.00
2019-06-27T06:38:39.924Z,2204.00
2019-06-27T06:39:39.943Z,2968.00
2019-06-27T06:40:39.963Z,2840.00
2019-06-27T06:41:39.994Z,3624.00
2019-06-27T06:42:40.036Z,3672.00
2019-06-27T06:43:40.031Z,3600.00
2019-06-27T06:44:40.052Z,3736.00
2019-06-27T06:45:40.079Z,3728.00
2019-06-27T06:46:40.119Z,3928.00
2019-06-27T06:47:40.127Z,3792.00
2019-06-27T06:48:40.146Z,3824.00
2019-06-27T06:49:40.180Z,3696.00
2019-06-27T06:50:40.193Z,3412.00
2019-06-27T06:51:40.223Z,3476.00
2019-06-27T06:52:40.241Z,3600.00
2019-06-27T06:53:40.268Z,3584.00
2019-06-27T06:54:40.291Z,3620.00
2019-06-27T06:55:42.714Z,3672.00
2019-06-27T06:56:40.330Z,3684.00
2019-06-27T06:57:40.354Z,3568.00
2019-06-27T06:58:40.391Z,3684.00
2019-06-27T06:59:40.401Z,3872.00
2019-06-27T07:00:40.428Z,3760.00
2019-06-27T07:01:40.452Z,3840.00
2019-06-27T07:02:40.484Z,3784.00
2019-06-27T07:03:40.498Z,3928.00
2019-06-27T07:04:40.521Z,3748.00
2019-06-27T07:05:40.550Z,3976.00
2019-06-27T07:06:40.572Z,3900.00
2019-06-27T07:07:40.591Z,3892.00
2019-06-27T07:08:40.621Z,3848.00
2019-06-27T07:09:40.648Z,3784.00
2019-06-27T07:10:40.663Z,3804.00
2019-06-27T07:11:40.750Z,3876.00
2019-06-27T07:12:40.711Z,3732.00
2019-06-27T07:13:40.737Z,3784.00
2019-06-27T07:14:40.757Z,3856.00
2019-06-27T07:15:40.786Z,4032.00
2019-06-27T07:16:40.810Z,3928.00
2019-06-27T07:17:40.837Z,4024.00
2019-06-27T07:18:40.869Z,3836.00
2019-06-27T07:19:40.880Z,3840.00
2019-06-27T07:20:40.902Z,4116.00
2019-06-27T07:21:40.926Z,4188.00
2019-06-27T07:22:40.958Z,3968.00
2019-06-27T07:23:40.973Z,3844.00
2019-06-27T07:24:41.002Z,3900.00
2019-06-27T07:25:41.953Z,3660.00
2019-06-27T07:26:41.045Z,3768.00
2019-06-27T07:27:41.073Z,3704.00
2019-06-27T07:28:41.129Z,3676.00
2019-06-27T07:29:41.131Z,3640.00
2019-06-27T07:30:41.155Z,3580.00
2019-06-27T07:31:41.181Z,3580.00
2019-06-27T07:32:41.199Z,3548.00
2019-06-27T07:33:41.226Z,3576.00
2019-06-27T07:34:41.247Z,3568.00
2019-06-27T07:35:41.264Z,3648.00
2019-06-27T07:36:41.292Z,3680.00
2019-06-27T07:37:41.321Z,3592.00
2019-06-27T07:38:41.339Z,3636.00
2019-06-27T07:39:41.361Z,3664.00
2019-06-27T07:40:41.388Z,3736.00
2019-06-27T07:41:41.408Z,3736.00
2019-06-27T07:42:41.437Z,3712.00
2019-06-27T07:43:41.462Z,3676.00
2019-06-27T07:44:41.482Z,3704.00
2019-06-27T07:45:41.508Z,3804.00
2019-06-27T07:46:41.526Z,3792.00
2019-06-27T07:47:41.556Z,3776.00
2019-06-27T07:48:41.581Z,3772.00
2019-06-27T07:49:41.621Z,3868.00
2019-06-27T07:50:41.629Z,3840.00
2019-06-27T07:51:41.654Z,3948.00
2019-06-27T07:52:41.924Z,3872.00
2019-06-27T07:53:41.696Z,4040.00
2019-06-27T07:54:41.724Z,3988.00
2019-06-27T07:55:41.741Z,3988.00
2019-06-27T07:56:41.772Z,4000.00
2019-06-27T07:57:41.819Z,4116.00
2019-06-27T07:58:41.825Z,4120.00
2019-06-27T07:59:41.833Z,3920.00
2019-06-27T08:00:41.860Z,4036.00
2019-06-27T08:01:41.889Z,3924.00
2019-06-27T08:02:41.921Z,4088.00
2019-06-27T08:03:41.927Z,4012.00
2019-06-27T08:04:41.954Z,3924.00
2019-06-27T08:05:41.978Z,4156.00
2019-06-27T08:06:42.007Z,4108.00
2019-06-27T08:07:42.029Z,4136.00
2019-06-27T08:08:42.066Z,4320.00
2019-06-27T08:09:42.074Z,4160.00
2019-06-27T08:10:42.099Z,4276.00
2019-06-27T08:11:42.115Z,4376.00
2019-06-27T08:12:42.756Z,4200.00
2019-06-27T08:13:42.169Z,4196.00
2019-06-27T08:14:42.195Z,4316.00
2019-06-27T08:15:42.214Z,4204.00
2019-06-27T08:16:42.288Z,4168.00
2019-06-27T08:17:42.251Z,4332.00
2019-06-27T08:18:42.281Z,4256.00
2019-06-27T08:19:42.301Z,4224.00
2019-06-27T08:20:42.323Z,4096.00
2019-06-27T08:21:42.347Z,4316.00
2019-06-27T08:22:42.369Z,4252.00
2019-06-27T08:23:42.390Z,4156.00
2019-06-27T08:24:42.422Z,4196.00
2019-06-27T08:25:42.439Z,4360.00
2019-06-27T08:26:42.465Z,4204.00
2019-06-27T08:27:42.486Z,4444.00
2019-06-27T08:28:42.512Z,4384.00
2019-06-27T08:29:42.536Z,4620.00
2019-06-27T08:30:42.568Z,4352.00
2019-06-27T08:31:51.412Z,4188.00
2019-06-27T08:32:42.605Z,4244.00
2019-06-27T08:33:42.673Z,4216.00
2019-06-27T08:34:42.650Z,4552.00
2019-06-27T08:35:42.669Z,4312.00
2019-06-27T08:36:42.693Z,4228.00
2019-06-27T08:37:42.718Z,4132.00
2019-06-27T08:38:42.753Z,4300.00
2019-06-27T08:39:42.769Z,4244.00
2019-06-27T08:40:42.802Z,4764.00
2019-06-27T08:41:42.809Z,4356.00
2019-06-27T08:42:42.839Z,4280.00
2019-06-27T08:43:42.855Z,4276.00
2019-06-27T08:44:42.886Z,4516.00
2019-06-27T08:45:42.901Z,5064.00
2019-06-27T08:46:42.933Z,4276.00
2019-06-27T08:47:42.954Z,4480.00
2019-06-27T08:48:42.975Z,4420.00
2019-06-27T08:49:43.001Z,4216.00
2019-06-27T08:50:43.019Z,4156.00
2019-06-27T08:51:43.049Z,4316.00
2019-06-27T08:52:43.070Z,4364.00
2019-06-27T08:53:43.089Z,4280.00
2019-06-27T08:54:43.115Z,4216.00
2019-06-27T08:55:43.139Z,4232.00
2019-06-27T08:56:43.166Z,4216.00
2019-06-27T08:57:43.192Z,4268.00
2019-06-27T08:58:43.214Z,4216.00
2019-06-27T08:59:43.538Z,4924.00
2019-06-27T09:00:45.857Z,4312.00
2019-06-27T09:01:43.284Z,4292.00
2019-06-27T09:02:43.308Z,4224.00
2019-06-27T09:03:43.330Z,4288.00
2019-06-27T09:04:43.351Z,4300.00
2019-06-27T09:05:43.375Z,4184.00
2019-06-27T09:06:43.398Z,4244.00
2019-06-27T09:07:43.432Z,4148.00
2019-06-27T09:08:43.474Z,4168.00
2019-06-27T09:09:43.467Z,4284.00
2019-06-27T09:10:43.502Z,4476.00
2019-06-27T09:11:43.520Z,4136.00
2019-06-27T09:12:43.544Z,4168.00
2019-06-27T09:13:44.020Z,4244.00
2019-06-27T09:14:43.590Z,4192.00
2019-06-27T09:15:43.608Z,4304.00
2019-06-27T09:16:46.585Z,4148.00
2019-06-27T09:17:43.665Z,4320.00
2019-06-27T09:18:43.682Z,4248.00
2019-06-27T09:19:44.057Z,4552.00
2019-06-27T09:20:43.736Z,4092.00
2019-06-27T09:21:43.758Z,4068.00
2019-06-27T09:22:43.776Z,4244.00
2019-06-27T09:23:43.799Z,4188.00
2019-06-27T09:24:43.849Z,4116.00
2019-06-27T09:25:43.871Z,4136.00
2019-06-27T09:26:43.872Z,4264.00
2019-06-27T09:27:43.894Z,4172.00
2019-06-27T09:28:43.989Z,4128.00
2019-06-27T09:29:43.949Z,4492.00
2019-06-27T09:30:43.972Z,4084.00
2019-06-27T09:31:43.986Z,4164.00
2019-06-27T09:32:44.025Z,4320.00
2019-06-27T09:33:44.037Z,4592.00
2019-06-27T09:34:44.064Z,3992.00
2019-06-27T09:35:44.089Z,4016.00
2019-06-27T09:36:44.109Z,4008.00
2019-06-27T09:37:44.134Z,4012.00
2019-06-27T09:38:44.173Z,3992.00
2019-06-27T09:39:44.186Z,4088.00
2019-06-27T09:40:44.199Z,4036.00
2019-06-27T09:41:44.226Z,4068.00
2019-06-27T09:42:44.251Z,4660.00
2019-06-27T09:43:44.272Z,4008.00
2019-06-27T09:44:44.297Z,4148.00
2019-06-27T09:45:44.321Z,4320.00
2019-06-27T09:46:44.345Z,4004.00
2019-06-27T09:47:44.368Z,4028.00
2019-06-27T09:48:44.399Z,3912.00
2019-06-27T09:49:44.420Z,4436.00
2019-06-27T09:50:44.442Z,4608.00
2019-06-27T09:51:44.468Z,3944.00
2019-06-27T09:52:44.491Z,3968.00
2019-06-27T09:53:44.509Z,3804.00
2019-06-27T09:54:44.535Z,3928.00
2019-06-27T09:55:47.323Z,3932.00
2019-06-27T09:56:44.589Z,3944.00
2019-06-27T09:57:44.607Z,4032.00
2019-06-27T09:58:44.636Z,3868.00
2019-06-27T09:59:44.658Z,3740.00
2019-06-27T10:00:44.762Z,3804.00
2019-06-27T10:01:44.703Z,4284.00
2019-06-27T10:02:44.728Z,3828.00
2019-06-27T10:03:44.761Z,3800.00
2019-06-27T10:04:44.783Z,3680.00
2019-06-27T10:05:44.801Z,3664.00
2019-06-27T10:06:44.828Z,3764.00
2019-06-27T10:07:44.861Z,3920.00
2019-06-27T10:08:44.877Z,3772.00
2019-06-27T10:09:44.909Z,3568.00
2019-06-27T10:10:44.925Z,3596.00
2019-06-27T10:11:44.954Z,3600.00
2019-06-27T10:12:44.973Z,3780.00
2019-06-27T10:13:45.002Z,3696.00
2019-06-27T10:14:45.026Z,3652.00
2019-06-27T10:15:45.052Z,3596.00
2019-06-27T10:16:45.085Z,3672.00
2019-06-27T10:17:45.115Z,3676.00
2019-06-27T10:18:45.116Z,3764.00
2019-06-27T10:19:45.199Z,3740.00
2019-06-27T10:20:45.172Z,3684.00
2019-06-27T10:21:45.190Z,3508.00
2019-06-27T10:22:45.223Z,3572.00
2019-06-27T10:23:45.246Z,3652.00
2019-06-27T10:24:45.262Z,3456.00
2019-06-27T10:25:45.287Z,3444.00
2019-06-27T10:26:45.310Z,3772.00
2019-06-27T10:27:45.335Z,3504.00
2019-06-27T10:28:45.361Z,3536.00
2019-06-27T10:29:45.388Z,3548.00
2019-06-27T10:30:49.055Z,3356.00
2019-06-27T10:31:45.434Z,3472.00
2019-06-27T10:32:58.464Z,3440.00
2019-06-27T10:33:45.485Z,3368.00
2019-06-27T10:34:45.516Z,3348.00
2019-06-27T10:35:45.531Z,3388.00
2019-06-27T10:36:45.572Z,3648.00
2019-06-27T10:37:45.582Z,3744.00
2019-06-27T10:38:45.612Z,3412.00
2019-06-27T10:39:45.629Z,3620.00
2019-06-27T10:40:45.652Z,3332.00
2019-06-27T10:41:45.681Z,3636.00
2019-06-27T10:42:45.702Z,3352.00
2019-06-27T10:43:45.731Z,3932.00
2019-06-27T10:44:45.760Z,3480.00
2019-06-27T10:45:45.777Z,3352.00
2019-06-27T10:46:45.806Z,3608.00
2019-06-27T10:47:45.826Z,3480.00
2019-06-27T10:48:45.860Z,3316.00
2019-06-27T10:49:45.875Z,3172.00
2019-06-27T10:50:46.685Z,3288.00
2019-06-27T10:51:45.929Z,3480.00
2019-06-27T10:52:45.950Z,3200.00
2019-06-27T10:53:45.975Z,3232.00
2019-06-27T10:54:46.000Z,3124.00
2019-06-27T10:55:46.034Z,3160.00
2019-06-27T10:56:46.051Z,3232.00
2019-06-27T10:57:46.077Z,3168.00
2019-06-27T10:58:46.097Z,3196.00
2019-06-27T10:59:46.123Z,3124.00
2019-06-27T11:00:46.148Z,3136.00
2019-06-27T11:01:46.180Z,3164.00
2019-06-27T11:02:46.198Z,3164.00
2019-06-27T11:03:46.231Z,3312.00
2019-06-27T11:04:46.254Z,3160.00
2019-06-27T11:05:46.274Z,3252.00
2019-06-27T11:06:46.305Z,3132.00
2019-06-27T11:07:46.325Z,3196.00
2019-06-27T11:08:46.348Z,3148.00
2019-06-27T11:09:49.990Z,3112.00
2019-06-27T11:10:46.417Z,3000.00
2019-06-27T11:11:46.423Z,3064.00
2019-06-27T11:12:46.459Z,3332.00
2019-06-27T11:13:58.289Z,3120.00
2019-06-27T11:14:58.573Z,3072.00
2019-06-27T11:15:49.313Z,3116.00
2019-06-27T11:16:46.546Z,3048.00
2019-06-27T11:17:46.580Z,3220.00
2019-06-27T11:18:46.602Z,3068.00
2019-06-27T11:19:52.262Z,3084.00
2019-06-27T11:20:46.647Z,3096.00
2019-06-27T11:21:46.677Z,3036.00
2019-06-27T11:22:46.704Z,3164.00
2019-06-27T11:23:46.722Z,3332.00
2019-06-27T11:24:46.746Z,2996.00
2019-06-27T11:25:46.779Z,2964.00
2019-06-27T11:26:46.801Z,3236.00
2019-06-27T11:27:46.823Z,3176.00
2019-06-27T11:28:46.860Z,2948.00
2019-06-27T11:29:46.878Z,3056.00
2019-06-27T11:30:46.920Z,3000.00
2019-06-27T11:31:46.922Z,3276.00
2019-06-27T11:32:46.954Z,2924.00
2019-06-27T11:33:46.973Z,2948.00
2019-06-27T11:34:46.997Z,2932.00
2019-06-27T11:35:47.114Z,3212.00
2019-06-27T11:36:47.054Z,2968.00
2019-06-27T11:37:47.077Z,2984.00
2019-06-27T11:38:47.099Z,2984.00
2019-06-27T11:39:47.122Z,2948.00
2019-06-27T11:40:47.149Z,3028.00
2019-06-27T11:41:47.172Z,2952.00
2019-06-27T11:42:47.199Z,3432.00
2019-06-27T11:43:47.258Z,3000.00
2019-06-27T11:44:47.248Z,2904.00
2019-06-27T11:45:47.283Z,2960.00
2019-06-27T11:46:47.296Z,2876.00
2019-06-27T11:47:47.323Z,2936.00
2019-06-27T11:48:47.349Z,3524.00
2019-06-27T11:49:47.374Z,3212.00
2019-06-27T11:50:47.399Z,2892.00
2019-06-27T11:51:47.426Z,2956.00
2019-06-27T11:52:47.706Z,3008.00
2019-06-27T11:53:47.480Z,2972.00
2019-06-27T11:54:47.500Z,3072.00
2019-06-27T11:55:47.528Z,3184.00
2019-06-27T11:56:47.558Z,2988.00
2019-06-27T11:57:47.582Z,2900.00
2019-06-27T11:58:47.606Z,2900.00
2019-06-27T11:59:47.631Z,3308.00
2019-06-27T12:00:47.676Z,2884.00
2019-06-27T12:01:47.681Z,2912.00
2019-06-27T12:02:47.704Z,2876.00
2019-06-27T12:03:49.818Z,2872.00
2019-06-27T12:04:47.754Z,2948.00
2019-06-27T12:05:47.785Z,2880.00
2019-06-27T12:06:47.804Z,2828.00
2019-06-27T12:07:47.833Z,2876.00
2019-06-27T12:08:47.862Z,2808.00
2019-06-27T12:09:47.883Z,3008.00
2019-06-27T12:10:47.910Z,2864.00
2019-06-27T12:11:47.930Z,2928.00
2019-06-27T12:12:47.956Z,2916.00
2019-06-27T12:13:47.988Z,2984.00
2019-06-27T12:14:48.009Z,2748.00
2019-06-27T12:15:51.478Z,2888.00
2019-06-27T12:16:48.161Z,2784.00
2019-06-27T12:17:48.091Z,2876.00
2019-06-27T12:18:48.110Z,3428.00
2019-06-27T12:19:48.140Z,2804.00
2019-06-27T12:20:48.171Z,2808.00
2019-06-27T12:21:48.193Z,3248.00
2019-06-27T12:22:48.216Z,2856.00
2019-06-27T12:23:48.280Z,2660.00
2019-06-27T12:24:48.269Z,2796.00
2019-06-27T12:25:48.290Z,2768.00
2019-06-27T12:26:48.457Z,2944.00